createdAt,value
2023-04-02T00:02:30.928Z,94.00
2023-04-02T00:05:27.413Z,93.89
2023-04-02T00:07:54.399Z,93.25
2023-04-02T00:10:31.709Z,93.31
2023-04-02T00:13:06.881Z,95.20
2023-04-02T00:15:34.312Z,94.99
2023-04-02T00:18:01.934Z,94.92
2023-04-02T00:20:32.872Z,94.54
2023-04-02T00:22:59.278Z,94.38
2023-04-02T00:25:27.217Z,94.93
2023-04-02T00:27:56.111Z,96.04
2023-04-02T00:30:24.972Z,96.36
2023-04-02T00:32:52.019Z,95.70
2023-04-02T00:35:22.976Z,96.38
2023-04-02T00:37:50.737Z,94.45
2023-04-02T00:40:21.239Z,94.10
2023-04-02T00:42:48.578Z,95.29
2023-04-02T00:45:22.790Z,94.30
2023-04-02T00:47:49.905Z,95.03
2023-04-02T00:50:21.880Z,94.68
2023-04-02T00:52:51.790Z,94.64
2023-04-02T00:55:22.422Z,95.27
2023-04-02T00:57:50.822Z,94.45
2023-04-02T01:00:27.241Z,95.42
2023-04-02T01:03:34.481Z,95.95
2023-04-02T01:06:06.369Z,94.36
2023-04-02T01:08:46.359Z,95.65
2023-04-02T01:11:34.558Z,94.80
2023-04-02T01:14:11.184Z,93.93
2023-04-02T01:16:50.302Z,94.51
2023-04-02T01:19:43.452Z,95.79
2023-04-02T01:22:18.125Z,94.35
2023-04-02T01:24:45.362Z,95.19
2023-04-02T01:27:16.722Z,95.20
2023-04-02T01:29:48.359Z,94.75
2023-04-02T01:32:17.903Z,95.61
2023-04-02T01:34:46.543Z,93.87
2023-04-02T01:37:30.444Z,96.26
2023-04-02T01:40:09.153Z,96.26
2023-04-02T01:42:41.486Z,95.23
2023-04-02T01:45:12.225Z,95.71
2023-04-02T01:47:39.872Z,95.19
2023-04-02T01:50:21.497Z,94.67
2023-04-02T01:52:51.255Z,94.16
2023-04-02T01:55:23.851Z,93.49
2023-04-02T01:57:52.747Z,94.98
2023-04-02T02:00:20.841Z,95.30
2023-04-02T02:02:51.989Z,95.15
2023-04-02T02:05:21.633Z,93.53
2023-04-02T02:07:51.942Z,94.64
2023-04-02T02:10:23.330Z,94.72
2023-04-02T02:12:49.799Z,95.33
2023-04-02T02:15:23.353Z,95.09
2023-04-02T02:17:50.275Z,94.13
2023-04-02T02:20:17.880Z,94.55
2023-04-02T02:22:46.974Z,94.01
2023-04-02T02:25:17.020Z,93.64
2023-04-02T02:27:49.541Z,94.65
2023-04-02T02:30:23.410Z,94.22
2023-04-02T02:32:58.318Z,95.03
2023-04-02T02:35:30.493Z,94.32
2023-04-02T02:38:24.570Z,94.88
2023-04-02T02:40:56.795Z,95.44
2023-04-02T02:43:24.560Z,94.47
2023-04-02T02:45:55.347Z,93.85
2023-04-02T02:48:25.245Z,95.99
2023-04-02T02:50:54.511Z,95.25
2023-04-02T02:53:24.450Z,94.22
2023-04-02T02:55:58.073Z,95.53
2023-04-02T02:58:30.761Z,95.43
2023-04-02T03:01:06.415Z,95.21
2023-04-02T03:03:35.236Z,95.73
2023-04-02T03:06:10.015Z,94.82
2023-04-02T03:08:43.335Z,95.33
2023-04-02T03:11:18.707Z,94.65
2023-04-02T03:13:50.634Z,94.22
2023-04-02T03:16:25.919Z,94.02
2023-04-02T03:18:57.984Z,94.81
2023-04-02T03:21:31.120Z,94.69
2023-04-02T03:24:01.246Z,94.92
2023-04-02T03:26:33.972Z,95.85
2023-04-02T03:29:04.800Z,94.50
2023-04-02T03:31:37.856Z,94.97
2023-04-02T03:34:09.955Z,95.08
2023-04-02T03:36:42.573Z,94.24
2023-04-02T03:39:17.161Z,95.33
2023-04-02T03:41:50.874Z,94.75
2023-04-02T03:44:25.814Z,94.59
2023-04-02T03:46:57.940Z,94.56
2023-04-02T03:49:34.712Z,95.52
2023-04-02T03:52:05.556Z,95.69
2023-04-02T03:54:33.100Z,94.59
2023-04-02T03:57:00.106Z,95.68
2023-04-02T03:59:39.481Z,95.33
2023-04-02T04:02:26.989Z,96.61
2023-04-02T04:04:55.586Z,95.35
2023-04-02T04:07:29.676Z,94.56
2023-04-02T04:09:58.294Z,94.82
2023-04-02T04:12:29.888Z,96.06
2023-04-02T04:15:02.388Z,95.96
2023-04-02T04:17:36.376Z,95.56
2023-04-02T04:20:15.689Z,94.90
2023-04-02T04:22:42.255Z,94.94
2023-04-02T04:25:21.053Z,94.52
2023-04-02T04:30:31.480Z,93.90
2023-04-02T04:33:04.848Z,94.45
2023-04-02T04:35:34.830Z,93.75
2023-04-02T04:38:12.005Z,93.86
2023-04-02T04:40:44.680Z,95.40
2023-04-02T04:43:16.732Z,94.42
2023-04-02T04:45:48.245Z,94.95
2023-04-02T04:48:23.891Z,94.90
2023-04-02T04:50:54.894Z,94.97
2023-04-02T04:53:25.882Z,94.40
2023-04-02T04:55:54.906Z,92.75
2023-04-02T04:58:25.767Z,93.80
2023-04-02T05:00:56.312Z,94.87
2023-04-02T05:03:33.744Z,94.76
2023-04-02T05:06:08.673Z,93.24
2023-04-02T05:08:43.114Z,94.04
2023-04-02T05:11:15.251Z,93.10
2023-04-02T05:13:47.116Z,94.71
2023-04-02T05:16:17.768Z,94.34
2023-04-02T05:18:52.329Z,93.86
2023-04-02T05:21:24.745Z,93.41
2023-04-02T05:23:56.136Z,93.73
2023-04-02T05:26:25.730Z,93.77
2023-04-02T05:28:57.121Z,94.91
2023-04-02T05:31:28.083Z,94.10
2023-04-02T05:33:57.216Z,93.75
2023-04-02T05:36:26.477Z,94.76
2023-04-02T05:38:57.973Z,94.09
2023-04-02T05:41:47.367Z,94.00
2023-04-02T05:44:27.413Z,92.54
2023-04-02T05:46:59.078Z,92.59
2023-04-02T05:49:36.532Z,93.75
2023-04-02T05:52:06.624Z,91.80
2023-04-02T05:54:37.517Z,91.54
2023-04-02T05:57:10.453Z,92.41
2023-04-02T05:59:40.663Z,93.78
2023-04-02T06:02:19.075Z,93.54
2023-04-02T06:04:54.056Z,91.83
2023-04-02T06:07:26.454Z,91.90
2023-04-02T06:10:03.023Z,93.72
2023-04-02T06:12:40.806Z,93.11
2023-04-02T06:15:15.587Z,93.02
2023-04-02T06:17:47.281Z,92.98
2023-04-02T06:20:18.139Z,91.70
2023-04-02T06:22:49.079Z,90.40
2023-04-02T06:25:20.549Z,92.64
2023-04-02T06:27:50.741Z,90.59
2023-04-02T06:30:24.512Z,91.22
2023-04-02T06:32:52.157Z,93.00
2023-04-02T06:35:21.303Z,91.18
2023-04-02T06:38:01.280Z,90.24
2023-04-02T06:40:38.563Z,90.67
2023-04-02T06:43:20.749Z,91.04
2023-04-02T06:45:59.546Z,91.42
2023-04-02T06:48:33.081Z,89.20
2023-04-02T06:51:06.350Z,89.67
2023-04-02T06:53:36.514Z,89.30
2023-04-02T06:56:12.673Z,89.24
2023-04-02T06:58:39.167Z,88.97
2023-04-02T07:01:05.822Z,90.12
2023-04-02T07:03:40.121Z,88.13
2023-04-02T07:06:31.077Z,86.31
2023-04-02T07:08:59.966Z,85.58
2023-04-02T07:11:27.052Z,87.32
2023-04-02T07:13:57.075Z,87.97
2023-04-02T07:16:27.300Z,86.56
2023-04-02T07:18:56.040Z,86.68
2023-04-02T07:21:24.357Z,87.14
2023-04-02T07:23:52.185Z,87.16
2023-04-02T07:26:22.001Z,86.34
2023-04-02T07:28:48.941Z,85.67
2023-04-02T07:31:17.247Z,84.79
2023-04-02T07:33:44.380Z,85.43
2023-04-02T07:36:14.868Z,85.37
2023-04-02T07:38:41.235Z,85.54
2023-04-02T07:41:09.256Z,81.76
2023-04-02T07:43:35.633Z,84.83
2023-04-02T07:46:02.478Z,85.03
2023-04-02T07:48:29.110Z,85.77
2023-04-02T07:50:55.571Z,83.13
2023-04-02T07:53:28.132Z,82.60
2023-04-02T07:55:54.656Z,81.00
2023-04-02T07:58:22.510Z,83.53
2023-04-02T08:00:49.092Z,82.17
2023-04-02T08:03:15.696Z,82.24
2023-04-02T08:05:42.298Z,80.10
2023-04-02T08:08:08.990Z,83.00
2023-04-02T08:10:35.455Z,81.16
2023-04-02T08:13:01.863Z,79.87
2023-04-02T08:15:29.606Z,81.15
2023-04-02T08:17:56.038Z,80.76
2023-04-02T08:20:22.767Z,80.66
2023-04-02T08:22:50.385Z,82.72
2023-04-02T08:25:17.128Z,83.56
2023-04-02T08:27:46.546Z,81.22
2023-04-02T08:30:13.751Z,83.11
2023-04-02T08:32:41.644Z,80.49
2023-04-02T08:35:09.263Z,84.78
2023-04-02T08:37:35.701Z,83.27
2023-04-02T08:40:02.168Z,83.31
2023-04-02T08:42:37.663Z,83.26
2023-04-02T08:45:25.061Z,81.17
2023-04-02T08:47:56.308Z,83.16
2023-04-02T08:50:30.120Z,81.88
2023-04-02T08:52:57.271Z,82.82
2023-04-02T08:55:31.577Z,83.58
2023-04-02T08:58:07.444Z,81.62
2023-04-02T09:00:38.033Z,81.21
2023-04-02T09:03:10.073Z,81.77
2023-04-02T09:05:40.702Z,82.46
2023-04-02T09:08:15.099Z,80.90
2023-04-02T09:10:50.700Z,82.45
2023-04-02T09:13:23.650Z,80.07
2023-04-02T09:15:52.755Z,79.66
2023-04-02T09:18:20.944Z,82.01
2023-04-02T09:20:47.583Z,79.46
2023-04-02T09:23:17.084Z,79.76
2023-04-02T09:25:57.419Z,79.26
2023-04-02T09:28:29.709Z,78.57
2023-04-02T09:31:01.224Z,78.60
2023-04-02T09:33:46.401Z,80.42
2023-04-02T09:36:32.150Z,79.77
2023-04-02T09:39:01.691Z,78.75
2023-04-02T09:41:29.714Z,81.69
2023-04-02T09:44:23.189Z,78.97
2023-04-02T09:46:54.839Z,79.19
2023-04-02T09:49:27.013Z,80.46
2023-04-02T09:52:28.144Z,80.52
2023-04-02T09:55:19.112Z,78.59
2023-04-02T09:57:47.112Z,78.61
2023-04-02T10:00:31.676Z,80.88
2023-04-02T10:03:25.945Z,82.05
2023-04-02T10:06:09.214Z,82.50
2023-04-02T10:08:39.934Z,82.17
2023-04-02T10:11:10.792Z,79.04
2023-04-02T10:13:46.682Z,79.77
2023-04-02T10:16:19.362Z,79.44
2023-04-02T10:18:50.019Z,78.85
2023-04-02T10:21:19.406Z,80.31
2023-04-02T10:23:45.725Z,78.62
2023-04-02T10:26:30.405Z,79.99
2023-04-02T10:29:12.900Z,78.31
2023-04-02T10:31:48.810Z,76.75
2023-04-02T10:34:23.407Z,77.22
2023-04-02T10:36:54.561Z,80.13
2023-04-02T10:39:25.002Z,79.40
2023-04-02T10:41:56.715Z,80.12
2023-04-02T10:44:42.855Z,77.47
2023-04-02T10:47:22.047Z,79.55
2023-04-02T10:49:55.401Z,78.52
2023-04-02T10:52:29.170Z,78.12
2023-04-02T10:55:00.453Z,76.60
2023-04-02T10:57:34.286Z,77.83
2023-04-02T11:00:08.951Z,76.11
2023-04-02T11:02:41.542Z,75.23
2023-04-02T11:05:17.666Z,74.86
2023-04-02T11:07:59.235Z,74.40
2023-04-02T11:10:29.004Z,73.32
2023-04-02T11:13:00.718Z,74.68
2023-04-02T11:15:29.529Z,74.00
2023-04-02T11:17:56.274Z,75.53
2023-04-02T11:20:55.678Z,72.00
2023-04-02T11:23:27.872Z,74.88
2023-04-02T11:26:32.121Z,69.94
2023-04-02T11:29:08.393Z,72.64
2023-04-02T11:31:35.019Z,72.79
2023-04-02T11:34:01.539Z,75.02
2023-04-02T11:37:03.929Z,72.87
2023-04-02T11:39:48.907Z,74.72
2023-04-02T11:42:24.070Z,73.47
2023-04-02T11:44:50.482Z,71.07
2023-04-02T11:47:21.450Z,69.39
2023-04-02T11:50:04.802Z,69.21
2023-04-02T11:52:35.378Z,72.94
2023-04-02T11:55:16.621Z,72.58
2023-04-02T11:57:55.474Z,71.43
2023-04-02T12:00:31.482Z,72.39
2023-04-02T12:03:14.980Z,70.09
2023-04-02T12:05:48.584Z,68.64
2023-04-02T12:08:23.710Z,66.68
2023-04-02T12:10:56.368Z,64.25
2023-04-02T12:13:49.053Z,63.26
2023-04-02T12:16:16.800Z,68.48
2023-04-02T12:18:44.707Z,69.56
2023-04-02T12:21:15.872Z,65.51
2023-04-02T12:23:45.815Z,65.90
2023-04-02T12:26:27.505Z,62.41
2023-04-02T12:28:55.473Z,66.19
2023-04-02T12:31:24.250Z,65.74
2023-04-02T12:33:52.362Z,67.62
2023-04-02T12:36:20.736Z,69.62
2023-04-02T12:38:49.768Z,69.64
2023-04-02T12:41:22.072Z,70.47
2023-04-02T12:43:58.040Z,70.52
2023-04-02T12:46:25.089Z,73.94
2023-04-02T12:48:51.855Z,71.81
2023-04-02T12:51:23.441Z,70.29
2023-04-02T12:53:52.337Z,69.01
2023-04-02T12:56:19.870Z,71.08
2023-04-02T12:58:53.232Z,68.79
2023-04-02T13:01:26.723Z,70.29
2023-04-02T13:04:00.626Z,70.46
2023-04-02T13:06:27.257Z,68.39
2023-04-02T13:08:54.409Z,69.70
2023-04-02T13:11:20.980Z,68.63
2023-04-02T13:13:48.036Z,68.76
2023-04-02T13:16:34.482Z,67.15
2023-04-02T13:19:25.535Z,68.96
2023-04-02T13:21:55.227Z,69.28
2023-04-02T13:24:23.865Z,66.26
2023-04-02T13:26:53.828Z,67.08
2023-04-02T13:29:26.541Z,64.50
2023-04-02T13:31:56.980Z,64.62
2023-04-02T13:34:23.612Z,66.85
2023-04-02T13:36:50.118Z,64.51
2023-04-02T13:39:16.709Z,68.51
2023-04-02T13:41:45.424Z,66.46
2023-04-02T13:44:20.479Z,66.58
2023-04-02T13:46:47.003Z,66.26
2023-04-02T13:49:15.102Z,67.62
2023-04-02T13:51:44.326Z,68.43
2023-04-02T13:54:16.399Z,65.52
2023-04-02T13:56:42.913Z,68.01
2023-04-02T13:59:09.672Z,64.84
2023-04-02T14:01:36.512Z,67.03
2023-04-02T14:04:03.435Z,66.59
2023-04-02T14:06:49.259Z,66.69
2023-04-02T14:09:24.850Z,66.60
2023-04-02T14:12:00.908Z,62.62
2023-04-02T14:14:43.004Z,65.58
2023-04-02T14:17:16.939Z,61.75
2023-04-02T14:19:58.759Z,58.61
2023-04-02T14:22:41.394Z,58.62
2023-04-02T14:25:16.480Z,58.64
2023-04-02T14:27:53.509Z,59.14
2023-04-02T14:30:26.905Z,58.97
2023-04-02T14:33:02.423Z,55.67
2023-04-02T14:35:35.233Z,55.22
2023-04-02T14:38:13.037Z,55.71
2023-04-02T14:40:45.341Z,53.62
2023-04-02T14:43:17.079Z,54.58
2023-04-02T14:45:53.400Z,58.29
2023-04-02T14:48:30.305Z,58.19
2023-04-02T14:51:01.528Z,58.13
2023-04-02T14:53:33.143Z,58.37
2023-04-02T14:56:03.374Z,60.29
2023-04-02T14:58:34.276Z,59.27
2023-04-02T15:01:06.028Z,60.27
2023-04-02T15:03:37.322Z,56.72
2023-04-02T15:06:06.752Z,56.16
2023-04-02T15:08:38.250Z,61.17
2023-04-02T15:11:09.395Z,61.34
2023-04-02T15:13:37.884Z,59.19
2023-04-02T15:16:11.496Z,58.44
2023-04-02T15:18:38.476Z,58.50
2023-04-02T15:21:15.410Z,59.02
2023-04-02T15:23:53.848Z,61.02
2023-04-02T15:26:29.108Z,58.75
2023-04-02T15:29:02.483Z,60.61
2023-04-02T15:31:33.940Z,61.23
2023-04-02T15:34:20.954Z,59.65
2023-04-02T15:37:07.172Z,60.65
2023-04-02T15:39:51.617Z,62.40
2023-04-02T15:42:23.435Z,61.87
2023-04-02T15:45:17.646Z,61.06
2023-04-02T15:48:00.764Z,59.51
2023-04-02T15:50:44.114Z,59.21
2023-04-02T15:53:25.862Z,60.49
2023-04-02T15:56:05.064Z,59.39
2023-04-02T15:58:46.895Z,61.14
2023-04-02T16:01:21.608Z,61.53
2023-04-02T16:04:01.173Z,62.93
2023-04-02T16:06:29.943Z,61.03
2023-04-02T16:09:07.463Z,59.86
2023-04-02T16:11:35.321Z,57.86
2023-04-02T16:14:16.570Z,57.42
2023-04-02T16:16:47.102Z,57.70
2023-04-02T16:19:24.130Z,57.34
2023-04-02T16:21:57.615Z,58.17
2023-04-02T16:24:24.371Z,59.02
2023-04-02T16:26:59.588Z,58.17
2023-04-02T16:29:47.444Z,56.67
2023-04-02T16:32:34.118Z,57.78
2023-04-02T16:35:35.249Z,59.46
2023-04-02T16:38:09.016Z,58.26
2023-04-02T16:40:39.979Z,58.58
2023-04-02T16:43:20.012Z,58.53
2023-04-02T16:45:54.583Z,60.32
2023-04-02T16:48:31.322Z,58.43
2023-04-02T16:51:07.494Z,58.87
2023-04-02T16:53:58.430Z,58.01
2023-04-02T16:56:39.000Z,58.95
2023-04-02T16:59:18.002Z,58.97
2023-04-02T17:01:53.987Z,58.81
2023-04-02T17:04:36.114Z,59.28
2023-04-02T17:07:13.957Z,59.47
2023-04-02T17:09:47.315Z,59.28
2023-04-02T17:12:19.296Z,60.31
2023-04-02T17:14:51.206Z,59.86
2023-04-02T17:17:17.858Z,61.46
2023-04-02T17:19:44.692Z,62.78
2023-04-02T17:22:17.530Z,60.14
2023-04-02T17:24:47.606Z,60.51
2023-04-02T17:27:21.864Z,62.06
2023-04-02T17:29:53.098Z,61.30
2023-04-02T17:32:23.908Z,62.22
2023-04-02T17:34:50.481Z,61.77
2023-04-02T17:37:28.585Z,62.24
2023-04-02T17:40:09.232Z,62.87
2023-04-02T17:42:45.898Z,63.64
2023-04-02T17:45:19.368Z,63.45
2023-04-02T17:47:54.419Z,64.32
2023-04-02T17:50:35.540Z,65.39
2023-04-02T17:53:08.932Z,64.25
2023-04-02T17:55:47.494Z,63.51
2023-04-02T17:58:31.296Z,63.51
2023-04-02T18:01:06.851Z,64.17
2023-04-02T18:03:50.651Z,65.67
2023-04-02T18:09:02.333Z,63.74
2023-04-02T18:11:40.036Z,63.57
2023-04-02T18:14:25.043Z,64.58
2023-04-02T18:17:02.557Z,64.43
2023-04-02T18:19:41.918Z,64.74
2023-04-02T18:22:16.837Z,62.76
2023-04-02T18:24:58.972Z,66.23
2023-04-02T18:27:46.765Z,64.68
2023-04-02T18:30:25.688Z,64.80
2023-04-02T18:33:18.801Z,67.28
2023-04-02T18:35:58.060Z,68.24
2023-04-02T18:38:31.560Z,68.86
2023-04-02T18:41:05.524Z,70.46
2023-04-02T18:43:44.808Z,70.62
2023-04-02T18:46:21.286Z,69.56
2023-04-02T18:48:55.089Z,71.39
2023-04-02T18:51:23.461Z,70.84
2023-04-02T18:53:53.421Z,70.49
2023-04-02T18:56:20.608Z,69.62
2023-04-02T18:58:56.292Z,71.93
2023-04-02T19:01:30.248Z,70.14
2023-04-02T19:04:03.497Z,70.38
2023-04-02T19:06:36.461Z,70.67
2023-04-02T19:09:07.459Z,71.42
2023-04-02T19:11:34.140Z,71.91
2023-04-02T19:14:11.065Z,71.74
2023-04-02T19:16:54.153Z,70.19
2023-04-02T19:19:25.017Z,70.18
2023-04-02T19:22:07.961Z,71.49
2023-04-02T19:24:42.035Z,70.32
2023-04-02T19:27:16.183Z,69.82
2023-04-02T19:29:59.913Z,72.34
2023-04-02T19:32:38.247Z,71.13
2023-04-02T19:35:17.234Z,70.13
2023-04-02T19:37:52.750Z,71.69
2023-04-02T19:40:28.220Z,72.05
2023-04-02T19:42:54.808Z,70.83
2023-04-02T19:45:32.074Z,73.02
2023-04-02T19:48:00.509Z,71.54
2023-04-02T19:50:28.571Z,71.90
2023-04-02T19:52:54.949Z,71.22
2023-04-02T19:55:24.428Z,71.06
2023-04-02T19:57:52.677Z,69.57
2023-04-02T20:00:21.140Z,68.97
2023-04-02T20:02:47.597Z,69.42
2023-04-02T20:05:14.366Z,70.91
2023-04-02T20:07:42.171Z,70.85
2023-04-02T20:10:09.980Z,68.66
2023-04-02T20:12:36.419Z,70.66
2023-04-02T20:15:03.853Z,69.82
2023-04-02T20:17:30.273Z,70.30
2023-04-02T20:19:56.866Z,69.25
2023-04-02T20:22:23.488Z,70.62
2023-04-02T20:24:51.234Z,70.37
2023-04-02T20:27:17.702Z,69.41
2023-04-02T20:29:44.381Z,71.51
2023-04-02T20:32:11.113Z,69.58
2023-04-02T20:34:37.614Z,68.54
2023-04-02T20:37:04.046Z,68.25
2023-04-02T20:39:30.585Z,68.57
2023-04-02T20:41:58.841Z,68.22
2023-04-02T20:44:25.228Z,70.89
2023-04-02T20:46:51.649Z,70.37
2023-04-02T20:49:20.296Z,70.44
2023-04-02T20:51:48.504Z,69.94
2023-04-02T20:54:16.319Z,69.70
2023-04-02T20:56:42.724Z,69.63
2023-04-02T20:59:10.914Z,68.98
2023-04-02T21:01:37.531Z,70.58
2023-04-02T21:04:05.865Z,68.06
2023-04-02T21:06:34.738Z,69.44
2023-04-02T21:09:02.271Z,69.93
2023-04-02T21:11:28.950Z,69.38
2023-04-02T21:13:55.718Z,69.23
2023-04-02T21:16:24.806Z,69.84
2023-04-02T21:18:52.602Z,68.70
2023-04-02T21:21:20.230Z,67.13
2023-04-02T21:23:46.945Z,69.50
2023-04-02T21:26:15.669Z,68.96
2023-04-02T21:28:45.493Z,70.23
2023-04-02T21:31:13.771Z,68.47
2023-04-02T21:33:43.572Z,68.12
2023-04-02T21:36:11.865Z,69.72
2023-04-02T21:38:42.365Z,68.65
2023-04-02T21:41:09.343Z,70.94
2023-04-02T21:43:35.755Z,69.88
2023-04-02T21:46:02.300Z,70.97
2023-04-02T21:48:29.566Z,70.69
2023-04-02T21:51:04.676Z,69.32
2023-04-02T21:53:31.110Z,70.75
2023-04-02T21:56:01.054Z,71.29
2023-04-02T21:58:27.532Z,72.33
2023-04-02T22:00:53.990Z,70.81
2023-04-02T22:03:31.136Z,71.83
2023-04-02T22:06:05.610Z,71.32
2023-04-02T22:08:32.086Z,70.14
2023-04-02T22:11:04.587Z,70.59
2023-04-02T22:13:31.120Z,71.54
2023-04-02T22:16:00.386Z,70.98
2023-04-02T22:18:26.971Z,71.26
2023-04-02T22:20:53.766Z,72.67
2023-04-02T22:23:21.509Z,71.62
2023-04-02T22:25:47.919Z,71.72
2023-04-02T22:28:14.339Z,72.76
2023-04-02T22:30:40.818Z,72.46
2023-04-02T22:33:07.297Z,72.96
2023-04-02T22:35:33.966Z,71.52
2023-04-02T22:38:00.483Z,71.25
2023-04-02T22:40:28.362Z,73.44
2023-04-02T22:42:54.986Z,72.62
2023-04-02T22:45:21.662Z,72.44
2023-04-02T22:47:49.008Z,70.87
2023-04-02T22:50:16.246Z,71.80
2023-04-02T22:52:43.277Z,73.68
2023-04-02T22:55:11.376Z,73.45
2023-04-02T22:57:39.077Z,70.61
2023-04-02T23:00:07.817Z,73.96
2023-04-02T23:02:34.270Z,72.99
2023-04-02T23:05:00.777Z,71.47
2023-04-02T23:07:27.217Z,72.68
2023-04-02T23:09:53.586Z,71.72
2023-04-02T23:12:20.068Z,72.30
2023-04-02T23:14:47.822Z,72.09
2023-04-02T23:17:14.280Z,73.26
2023-04-02T23:19:40.852Z,71.09
2023-04-02T23:22:07.267Z,71.73
2023-04-02T23:24:33.640Z,71.97
2023-04-02T23:27:00.169Z,72.59
2023-04-02T23:29:26.706Z,72.93
2023-04-02T23:31:55.070Z,69.86
2023-04-02T23:34:21.757Z,71.36
2023-04-02T23:36:48.143Z,71.38
2023-04-02T23:39:14.555Z,72.44
2023-04-02T23:41:42.676Z,73.03
2023-04-02T23:44:09.545Z,74.43
2023-04-02T23:46:36.142Z,73.05
2023-04-02T23:49:04.003Z,74.55
2023-04-02T23:51:30.942Z,71.22
2023-04-02T23:53:57.455Z,72.80
2023-04-02T23:56:24.642Z,71.95
2023-04-02T23:58:51.387Z,73.78
